Time;durP1;ratioP1;P1;durP2;ratioP2;P2;SDS_P1;SDS_P2;PMS_P1;PMS_P2;Temp;Humidity;BMP_temperature;BMP_pressure;BME280_temperature;BME280_humidity;BME280_pressure;Samples;Min_cycle;Max_cycle;Signal;HPM_P1;HPM_P2
2023/11/28 00:00:29;;;;;;;13.35;10.93;;;;;;;1.48;100.00;100106.44;5093994;28;20044;-84
2023/11/28 00:02:54;;;;;;;16.70;11.32;;;;;;;1.48;100.00;100107.28;5093410;28;20379;-82
2023/11/28 00:05:20;;;;;;;13.98;11.13;;;;;;;1.50;100.00;100109.81;5075918;28;20063;-82
2023/11/28 00:07:45;;;;;;;14.20;11.30;;;;;;;1.52;100.00;100115.78;5093349;28;20051;-82
2023/11/28 00:10:11;;;;;;;14.13;11.00;;;;;;;1.53;100.00;100122.72;5075441;28;20032;-82
2023/11/28 00:12:36;;;;;;;15.27;11.52;;;;;;;1.54;100.00;100125.25;5075197;28;20498;-82
2023/11/28 00:15:02;;;;;;;13.45;10.85;;;;;;;1.56;100.00;100130.41;5075426;28;20035;-82
2023/11/28 00:17:27;;;;;;;15.00;11.25;;;;;;;1.55;100.00;100120.84;5093877;28;20042;-82
2023/11/28 00:19:52;;;;;;;14.10;10.50;;;;;;;1.56;100.00;100120.75;5093683;28;20438;-82
2023/11/28 00:22:18;;;;;;;14.05;11.00;;;;;;;1.58;100.00;100124.13;5093536;28;20066;-82
2023/11/28 00:24:43;;;;;;;16.40;11.48;;;;;;;1.61;100.00;100133.53;5075451;28;20036;-82
2023/11/28 00:27:10;;;;;;;16.30;11.35;;;;;;;1.62;100.00;100139.66;5075380;28;20547;-82
2023/11/28 00:29:35;;;;;;;17.38;12.13;;;;;;;1.61;100.00;100143.22;5093414;28;20173;-83
2023/11/28 00:32:00;;;;;;;14.57;11.00;;;;;;;1.60;100.00;100145.00;5093163;28;20115;-82
2023/11/28 00:34:26;;;;;;;13.18;9.80;;;;;;;1.60;100.00;100155.50;5093199;28;20035;-82
2023/11/28 00:36:52;;;;;;;13.27;9.95;;;;;;;1.59;100.00;100165.13;5075157;28;20035;-82
2023/11/28 00:39:18;;;;;;;12.75;9.73;;;;;;;1.57;100.00;100171.44;5074792;28;20598;-81
2023/11/28 00:41:45;;;;;;;12.52;9.65;;;;;;;1.57;100.00;100179.28;5093050;28;20032;-82
2023/11/28 00:44:11;;;;;;;12.18;9.32;;;;;;;1.52;100.00;100168.22;5093083;28;20032;-81
2023/11/28 00:46:40;;;;;;;12.35;9.70;;;;;;;1.51;100.00;100174.44;5092734;28;20118;-81
2023/11/28 00:49:06;;;;;;;12.20;8.98;;;;;;;1.47;100.00;100176.41;5093112;28;20028;-83
2023/11/28 00:51:31;;;;;;;11.52;9.05;;;;;;;1.45;100.00;100182.66;5093090;28;20035;-81
2023/11/28 00:53:57;;;;;;;12.43;9.50;;;;;;;1.44;100.00;100186.25;5074643;28;20028;-82
2023/11/28 00:56:22;;;;;;;13.32;9.90;;;;;;;1.44;100.00;100194.94;5092751;28;20050;-82
2023/11/28 00:58:48;;;;;;;15.60;10.50;;;;;;;1.46;100.00;100202.72;5092724;28;20078;-82
2023/11/28 01:01:14;;;;;;;15.43;11.75;;;;;;;1.44;100.00;100200.19;5093147;28;20048;-82
2023/11/28 01:03:40;;;;;;;17.02;12.15;;;;;;;1.45;100.00;100211.50;5092502;28;20050;-83
2023/11/28 01:06:07;;;;;;;17.88;11.93;;;;;;;1.46;100.00;100221.06;5092486;28;20473;-82
2023/11/28 01:08:36;;;;;;;17.05;12.55;;;;;;;1.45;100.00;100227.22;5074808;28;20035;-82
2023/11/28 01:11:02;;;;;;;15.00;12.13;;;;;;;1.41;100.00;100243.16;5092313;28;20539;-82
2023/11/28 01:13:28;;;;;;;15.90;11.68;;;;;;;1.43;100.00;100240.44;5092582;28;20127;-82
2023/11/28 01:15:54;;;;;;;12.95;10.60;;;;;;;1.38;100.00;100240.72;5091964;28;20069;-83
2023/11/28 01:18:20;;;;;;;12.80;10.20;;;;;;;1.36;100.00;100245.22;5092252;28;20040;-83
2023/11/28 01:20:45;;;;;;;15.05;10.55;;;;;;;1.32;100.00;100254.22;5074416;28;20028;-83
2023/11/28 01:23:11;;;;;;;11.48;9.57;;;;;;;1.31;100.00;100263.00;5092255;28;20463;-82
2023/11/28 01:25:37;;;;;;;11.75;8.73;;;;;;;1.26;100.00;100259.00;5092631;28;20046;-82
2023/11/28 01:28:02;;;;;;;11.70;8.80;;;;;;;1.23;100.00;100268.72;5092333;28;20495;-83
2023/11/28 01:30:28;;;;;;;10.32;7.65;;;;;;;1.19;100.00;100272.47;5092405;28;20028;-81
2023/11/28 01:32:54;;;;;;;9.93;7.50;;;;;;;1.17;100.00;100268.25;5092737;28;20101;-83
2023/11/28 01:35:20;;;;;;;9.52;7.13;;;;;;;1.15;100.00;100275.34;5092808;28;20028;-82
2023/11/28 01:37:45;;;;;;;9.48;7.30;;;;;;;1.14;100.00;100286.78;5074164;28;20067;-83
2023/11/28 01:40:12;;;;;;;9.68;6.65;;;;;;;1.13;100.00;100285.09;5092632;28;20028;-84
2023/11/28 01:42:38;;;;;;;8.43;6.63;;;;;;;1.13;100.00;100287.72;5092056;28;20499;-82
2023/11/28 01:45:05;;;;;;;10.57;6.85;;;;;;;1.11;100.00;100297.47;5092303;28;20040;-83
2023/11/28 01:47:32;;;;;;;7.95;6.38;;;;;;;1.10;100.00;100306.25;5092604;28;20059;-81
2023/11/28 01:49:57;;;;;;;8.38;6.75;;;;;;;1.08;100.00;100311.59;5057434;28;20028;-81
2023/11/28 01:52:23;;;;;;;8.65;6.68;;;;;;;1.07;100.00;100315.13;5092250;28;20050;-82
2023/11/28 01:54:49;;;;;;;7.63;6.10;;;;;;;1.05;100.00;100324.88;5092607;28;20452;-83
2023/11/28 01:57:15;;;;;;;9.27;6.50;;;;;;;1.02;100.00;100336.38;5092438;28;20040;-81
2023/11/28 01:59:42;;;;;;;8.18;5.78;;;;;;;0.99;100.00;100333.94;5092053;28;20048;-83
2023/11/28 02:02:08;;;;;;;9.43;5.60;;;;;;;0.97;100.00;100338.41;5092810;28;20145;-80
2023/11/28 02:04:34;;;;;;;8.75;5.97;;;;;;;0.95;100.00;100334.19;5092621;28;20464;-81
2023/11/28 02:06:59;;;;;;;11.70;5.70;;;;;;;0.95;100.00;100348.13;5092233;28;20024;-82
2023/11/28 02:09:26;;;;;;;10.18;5.68;;;;;;;0.91;100.00;100338.78;5092194;28;20409;-81
2023/11/28 02:11:52;;;;;;;8.02;5.30;;;;;;;0.91;100.00;100354.50;5092450;28;20025;-83
2023/11/28 02:14:17;;;;;;;8.63;5.72;;;;;;;0.88;100.00;100360.75;5075645;28;20377;-81
2023/11/28 02:16:43;;;;;;;6.78;5.20;;;;;;;0.86;100.00;100369.63;5092106;28;20043;-83
2023/11/28 02:19:08;;;;;;;9.38;5.63;;;;;;;0.83;100.00;100377.66;5092174;28;20036;-82
2023/11/28 02:21:33;;;;;;;7.43;5.43;;;;;;;0.81;100.00;100377.75;5092109;28;20384;-83
2023/11/28 02:23:59;;;;;;;9.48;5.60;;;;;;;0.80;100.00;100381.28;5091973;28;20024;-84
2023/11/28 02:26:26;;;;;;;8.77;5.80;;;;;;;0.82;100.00;100392.53;5093289;28;20089;-84
2023/11/28 02:28:55;;;;;;;9.10;5.47;;;;;;;0.80;100.00;100397.00;5095302;28;20028;-85
2023/11/28 02:31:21;;;;;;;8.40;5.43;;;;;;;0.77;100.00;100404.22;5095627;28;20032;-84
2023/11/28 02:33:47;;;;;;;9.02;5.75;;;;;;;0.76;100.00;100415.59;5077288;28;20390;-83
2023/11/28 02:36:14;;;;;;;6.78;5.22;;;;;;;0.74;100.00;100413.06;5095414;28;20032;-83
2023/11/28 02:38:40;;;;;;;10.80;5.45;;;;;;;0.70;100.00;100412.41;5095243;28;20028;-84
2023/11/28 02:41:06;;;;;;;9.15;5.18;;;;;;;0.68;100.00;100424.72;5095229;28;20108;-82
2023/11/28 02:43:31;;;;;;;6.63;4.63;;;;;;;0.66;100.00;100431.00;5094967;28;20469;-82
2023/11/28 02:45:56;;;;;;;6.05;4.47;;;;;;;0.62;100.00;100427.69;5094986;28;20490;-84
2023/11/28 02:48:22;;;;;;;12.40;5.40;;;;;;;0.57;100.00;100429.75;5095481;28;20478;-83
2023/11/28 02:50:48;;;;;;;6.00;4.20;;;;;;;0.52;100.00;100434.38;5094942;28;20035;-83
2023/11/28 02:53:13;;;;;;;10.02;4.22;;;;;;;0.39;100.00;100441.19;5094997;28;20119;-83
2023/11/28 02:55:38;;;;;;;8.95;3.90;;;;;;;0.21;100.00;100441.28;5095206;28;20024;-83
2023/11/28 02:58:04;;;;;;;4.65;2.80;;;;;;;0.07;100.00;100442.00;5094875;28;20034;-81
2023/11/28 03:00:29;;;;;;;5.40;2.80;;;;;;;-0.07;100.00;100449.75;5094257;28;20063;-83
2023/11/28 03:02:55;;;;;;;5.88;2.60;;;;;;;-0.22;100.00;100451.41;5094425;28;20056;-83
2023/11/28 03:05:20;;;;;;;6.13;2.70;;;;;;;-0.32;100.00;100464.09;5094931;28;20036;-81
2023/11/28 03:07:46;;;;;;;4.90;2.90;;;;;;;-0.45;100.00;100461.28;5095153;28;20139;-82
2023/11/28 03:10:11;;;;;;;3.13;2.33;;;;;;;-0.56;100.00;100466.19;5094215;28;20032;-82
2023/11/28 03:12:36;;;;;;;4.20;2.50;;;;;;;-0.70;100.00;100469.50;5094876;28;20032;-81
2023/11/28 03:15:02;;;;;;;4.95;2.65;;;;;;;-0.78;100.00;100467.22;5094828;28;20028;-83
2023/11/28 03:17:28;;;;;;;3.20;2.38;;;;;;;-0.85;100.00;100478.94;5094588;28;20468;-83
2023/11/28 03:19:53;;;;;;;3.00;2.10;;;;;;;-0.94;100.00;100477.59;5095131;28;20039;-82
2023/11/28 03:22:19;;;;;;;3.22;1.90;;;;;;;-0.99;100.00;100484.78;5094189;28;20375;-81
2023/11/28 03:24:46;;;;;;;5.03;2.58;;;;;;;-1.04;100.00;100480.75;5094584;28;20043;-81
2023/11/28 03:27:12;;;;;;;7.68;2.30;;;;;;;-1.10;100.00;100487.94;5076454;28;20131;-82
2023/11/28 03:29:38;;;;;;;4.18;2.05;;;;;;;-1.11;100.00;100490.59;5076126;28;20380;-83
2023/11/28 03:32:04;;;;;;;3.78;2.00;;;;;;;-1.16;100.00;100488.22;5076155;28;20396;-81
2023/11/28 03:34:29;;;;;;;3.15;1.80;;;;;;;-1.17;100.00;100490.91;5094341;28;20469;-82
2023/11/28 03:36:54;;;;;;;2.42;1.77;;;;;;;-1.18;100.00;100490.06;5076327;28;20031;-81
2023/11/28 03:39:20;;;;;;;2.80;1.95;;;;;;;-1.21;100.00;100490.19;5093115;28;20032;-82
2023/11/28 03:41:48;;;;;;;3.83;1.90;;;;;;;-1.27;100.00;100499.19;5093930;28;20039;-81
2023/11/28 03:44:14;;;;;;;2.70;1.85;;;;;;;-1.35;100.00;100497.84;5093952;28;20040;-88
2023/11/28 03:46:40;;;;;;;1.88;1.65;;;;;;;-1.39;100.00;100509.31;5076026;28;20112;-80
2023/11/28 03:49:06;;;;;;;2.90;1.77;;;;;;;-1.43;100.00;100516.47;5093871;28;20036;-84
2023/11/28 03:51:32;;;;;;;4.15;1.77;;;;;;;-1.49;100.00;100506.31;5094456;28;20039;-81
2023/11/28 03:53:57;;;;;;;3.85;1.80;;;;;;;-1.52;100.00;100512.50;5094075;28;20448;-81
2023/11/28 03:56:22;;;;;;;2.97;1.85;;;;;;;-1.56;100.00;100517.94;5093907;28;20059;-81
2023/11/28 03:58:48;;;;;;;3.10;1.45;;;;;;;-1.60;100.00;100523.28;5058997;28;20468;-82
2023/11/28 04:01:13;;;;;;;3.35;1.77;;;;;;;-1.66;100.00;100520.94;5058816;28;20103;-82
2023/11/28 04:03:39;;;;;;;3.47;2.03;;;;;;;-1.69;100.00;100526.28;5093290;28;20032;-83
2023/11/28 04:06:05;;;;;;;2.75;1.58;;;;;;;-1.73;100.00;100532.59;5093460;28;20035;-84
2023/11/28 04:08:30;;;;;;;1.88;1.65;;;;;;;-1.79;100.00;100538.06;5093744;28;20082;-82
2023/11/28 04:10:55;;;;;;;6.13;1.98;;;;;;;-1.82;100.00;100538.19;5093499;28;20028;-83
2023/11/28 04:13:21;;;;;;;4.32;1.90;;;;;;;-1.85;100.00;100543.53;5075868;28;20460;-82
2023/11/28 04:15:46;;;;;;;3.38;2.25;;;;;;;-1.91;100.00;100546.41;5093168;28;20051;-82
2023/11/28 04:18:11;;;;;;;3.92;1.73;;;;;;;-1.97;100.00;100550.13;5093443;28;20122;-82
2023/11/28 04:20:38;;;;;;;5.07;1.80;;;;;;;-2.02;100.00;100541.66;5093744;28;20024;-82
2023/11/28 04:23:04;;;;;;;4.90;1.92;;;;;;;-2.08;100.00;100545.38;5093355;28;20024;-84
2023/11/28 04:25:30;;;;;;;4.57;1.90;;;;;;;-2.11;100.00;100549.88;5075062;28;20082;-84
2023/11/28 04:27:56;;;;;;;3.47;1.92;;;;;;;-2.15;100.00;100549.16;5074999;28;20043;-84
2023/11/28 04:30:21;;;;;;;2.60;2.00;;;;;;;-2.20;100.00;100551.97;5075415;28;20384;-84
2023/11/28 04:32:46;;;;;;;4.15;2.33;;;;;;;-2.22;100.00;100558.16;5093151;28;20115;-83
2023/11/28 04:35:12;;;;;;;3.00;2.35;;;;;;;-2.26;100.00;100565.25;5092866;28;20377;-84
2023/11/28 04:37:37;;;;;;;3.33;2.25;;;;;;;-2.29;100.00;100565.38;5093480;28;20367;-84
2023/11/28 04:40:04;;;;;;;3.38;2.50;;;;;;;-2.30;100.00;100579.31;5074821;28;20027;-83
2023/11/28 04:42:30;;;;;;;5.45;2.67;;;;;;;-2.33;100.00;100589.88;5093147;28;20064;-83
2023/11/28 04:44:56;;;;;;;2.70;2.22;;;;;;;-2.36;100.00;100598.69;5093156;28;20039;-83
2023/11/28 04:47:21;;;;;;;5.38;2.50;;;;;;;-2.39;100.00;100596.19;5093308;28;20036;-83
2023/11/28 04:49:46;;;;;;;4.85;2.20;;;;;;;-2.41;100.00;100597.16;5091913;28;20506;-82
2023/11/28 04:52:12;;;;;;;2.15;1.92;;;;;;;-2.40;100.00;100601.47;5092433;28;20109;-83
2023/11/28 04:54:37;;;;;;;3.50;2.17;;;;;;;-2.41;100.00;100604.97;5075145;28;20032;-82
2023/11/28 04:57:04;;;;;;;3.45;2.30;;;;;;;-2.45;100.00;100608.63;5092652;28;20118;-82
2023/11/28 04:59:30;;;;;;;5.85;2.08;;;;;;;-2.50;100.00;100609.63;5092986;28;20056;-82
2023/11/28 05:01:55;;;;;;;3.55;2.40;;;;;;;-2.53;100.00;100612.38;5092635;28;20089;-82
2023/11/28 05:04:21;;;;;;;4.30;2.28;;;;;;;-2.60;100.00;100620.50;5074255;28;20028;-82
2023/11/28 05:06:46;;;;;;;2.90;2.13;;;;;;;-2.65;100.00;100625.88;5074460;28;20085;-82
2023/11/28 05:09:12;;;;;;;3.55;2.50;;;;;;;-2.71;100.00;100631.34;5092242;28;20126;-82
2023/11/28 05:11:41;;;;;;;3.28;2.10;;;;;;;-2.77;100.00;100631.56;5092555;28;20055;-82
2023/11/28 05:14:06;;;;;;;3.03;2.00;;;;;;;-2.81;100.00;100638.63;5093218;28;20036;-82
2023/11/28 05:16:32;;;;;;;3.72;1.98;;;;;;;-2.84;100.00;100650.03;5074275;28;20032;-82
2023/11/28 05:18:57;;;;;;;5.45;2.13;;;;;;;-2.83;100.00;100648.28;5092380;28;20036;-81
2023/11/28 05:21:22;;;;;;;4.40;2.20;;;;;;;-2.86;100.00;100657.03;5092839;28;20039;-81
2023/11/28 05:23:48;;;;;;;2.40;2.00;;;;;;;-2.86;100.00;100664.84;5092644;28;20118;-81
2023/11/28 05:26:13;;;;;;;4.03;2.28;;;;;;;-2.81;100.00;100676.88;5092898;28;20036;-82
2023/11/28 05:28:39;;;;;;;3.78;1.90;;;;;;;-2.80;100.00;100673.38;5092707;28;20043;-81
2023/11/28 05:31:04;;;;;;;2.75;1.90;;;;;;;-2.83;100.00;100671.72;5092655;28;20040;-81
2023/11/28 05:33:29;;;;;;;4.90;2.10;;;;;;;-2.84;100.00;100676.09;5092407;28;20523;-80
2023/11/28 05:35:55;;;;;;;3.97;2.00;;;;;;;-2.82;100.00;100681.25;5092211;28;20035;-81
2023/11/28 05:38:20;;;;;;;5.63;1.95;;;;;;;-2.78;100.00;100676.75;5092436;28;20099;-80
2023/11/28 05:40:45;;;;;;;4.95;1.98;;;;;;;-2.71;100.00;100676.44;5092337;28;20434;-79
2023/11/28 05:43:11;;;;;;;6.43;1.98;;;;;;;-2.67;100.00;100688.47;5092105;28;20220;-80
2023/11/28 05:45:36;;;;;;;2.63;1.90;;;;;;;-2.67;100.00;100674.59;5092268;28;20051;-80
2023/11/28 05:48:02;;;;;;;5.15;1.85;;;;;;;-2.64;100.00;100678.81;5074293;28;20476;-80
2023/11/28 05:50:27;;;;;;;2.97;2.35;;;;;;;-2.67;100.00;100672.00;5092766;28;20404;-80
2023/11/28 05:52:53;;;;;;;5.18;1.95;;;;;;;-2.71;100.00;100673.00;5093061;28;20521;-81
2023/11/28 05:55:20;;;;;;;4.15;2.20;;;;;;;-2.78;100.00;100672.38;5074518;28;20149;-81
2023/11/28 05:57:47;;;;;;;2.58;1.75;;;;;;;-2.85;100.00;100674.38;5092059;28;20028;-80
2023/11/28 06:00:13;;;;;;;3.10;1.90;;;;;;;-2.91;100.00;100672.00;5092231;28;20048;-80
2023/11/28 06:02:39;;;;;;;2.45;1.70;;;;;;;-2.96;100.00;100676.53;5095050;28;20241;-80
2023/11/28 06:05:05;;;;;;;3.50;1.90;;;;;;;-3.02;100.00;100680.19;5077795;28;20036;-79
2023/11/28 06:07:31;;;;;;;2.95;2.05;;;;;;;-3.04;100.00;100688.97;5096349;28;20032;-79
2023/11/28 06:09:57;;;;;;;2.88;1.90;;;;;;;-3.07;100.00;100686.50;5078415;28;20472;-80
2023/11/28 06:12:22;;;;;;;4.07;1.85;;;;;;;-3.09;100.00;100688.28;5096229;28;20040;-80
2023/11/28 06:14:48;;;;;;;3.67;1.98;;;;;;;-3.10;100.00;100697.84;5096160;28;20036;-79
2023/11/28 06:17:13;;;;;;;2.85;1.95;;;;;;;-3.09;100.00;100691.75;5077702;28;20042;-79
2023/11/28 06:19:39;;;;;;;2.83;2.00;;;;;;;-3.08;100.00;100696.03;5096116;28;20024;-79
2023/11/28 06:22:04;;;;;;;2.03;1.70;;;;;;;-3.08;100.00;100703.84;5095827;28;20052;-79
2023/11/28 06:24:30;;;;;;;5.55;2.20;;;;;;;-3.09;100.00;100707.38;5096026;28;20028;-79
2023/11/28 06:26:55;;;;;;;5.18;1.98;;;;;;;-3.10;100.00;100713.47;5096351;28;20059;-79
2023/11/28 06:29:21;;;;;;;2.88;1.92;;;;;;;-3.12;100.00;100720.50;5096228;28;20028;-80
2023/11/28 06:31:46;;;;;;;4.45;2.50;;;;;;;-3.12;100.00;100719.63;5095530;28;20491;-80
2023/11/28 06:34:11;;;;;;;5.25;2.30;;;;;;;-3.13;100.00;100721.41;5095952;28;20387;-78
2023/11/28 06:36:37;;;;;;;3.05;1.95;;;;;;;-3.12;100.00;100728.31;5095720;28;20028;-80
2023/11/28 06:39:02;;;;;;;1.90;1.75;;;;;;;-3.12;100.00;100733.53;5095881;28;20029;-80
2023/11/28 06:41:28;;;;;;;3.65;2.00;;;;;;;-3.12;100.00;100743.06;5077973;28;20360;-81
2023/11/28 06:43:54;;;;;;;3.42;1.83;;;;;;;-3.12;100.00;100746.53;5060705;28;20329;-79
2023/11/28 06:46:21;;;;;;;2.63;2.00;;;;;;;-3.15;100.00;100749.25;5095671;28;20122;-79
2023/11/28 06:48:47;;;;;;;2.90;1.77;;;;;;;-3.16;100.00;100759.69;5095313;28;20043;-79
2023/11/28 06:51:13;;;;;;;4.40;2.47;;;;;;;-3.20;100.00;100758.94;5076951;28;20349;-81
2023/11/28 06:53:39;;;;;;;4.82;2.15;;;;;;;-3.20;100.00;100764.16;5095698;28;20046;-79
2023/11/28 06:56:04;;;;;;;6.28;2.33;;;;;;;-3.23;100.00;100769.47;5095080;28;20455;-80
2023/11/28 06:58:30;;;;;;;4.45;2.20;;;;;;;-3.26;100.00;100775.63;5094676;28;20036;-79
2023/11/28 07:00:55;;;;;;;4.47;2.22;;;;;;;-3.27;100.00;100779.16;5095568;28;20185;-80
2023/11/28 07:03:21;;;;;;;3.67;2.38;;;;;;;-3.28;100.00;100785.25;5094668;28;20145;-80
2023/11/28 07:05:46;;;;;;;17.95;2.72;;;;;;;-3.25;100.00;100787.75;5060148;28;20113;-80
2023/11/28 07:08:11;;;;;;;4.22;2.42;;;;;;;-3.22;100.00;100795.44;5094688;28;20373;-79
2023/11/28 07:10:37;;;;;;;5.95;2.40;;;;;;;-3.22;100.00;100798.03;5094694;28;20115;-80
2023/11/28 07:13:03;;;;;;;7.63;2.60;;;;;;;-3.23;100.00;100804.13;5093759;28;20119;-80
2023/11/28 07:15:28;;;;;;;2.53;2.03;;;;;;;-3.25;100.00;100805.13;5094749;28;20032;-80
2023/11/28 07:17:54;;;;;;;3.53;2.10;;;;;;;-3.27;100.00;100805.16;5094315;28;20028;-80
2023/11/28 07:20:20;;;;;;;4.25;2.00;;;;;;;-3.29;100.00;100804.34;5094314;28;20032;-79
2023/11/28 07:22:45;;;;;;;3.55;2.22;;;;;;;-3.30;100.00;100802.69;5076080;28;20111;-78
2023/11/28 07:25:10;;;;;;;3.10;2.50;;;;;;;-3.31;100.00;100803.56;5076217;28;20472;-83
2023/11/28 07:27:36;;;;;;;3.97;2.50;;;;;;;-3.31;100.00;100803.56;5093928;28;20447;-80
2023/11/28 07:30:02;;;;;;;4.57;2.47;;;;;;;-3.29;100.00;100806.13;5094352;28;20029;-79
2023/11/28 07:32:28;;;;;;;5.47;2.53;;;;;;;-3.31;100.00;100806.16;5094328;28;20055;-79
2023/11/28 07:34:53;;;;;;;3.83;2.45;;;;;;;-3.29;100.00;100800.91;5094400;28;20035;-80
2023/11/28 07:37:18;;;;;;;4.97;2.60;;;;;;;-3.30;100.00;100805.28;5093988;28;20119;-80
2023/11/28 07:39:44;;;;;;;5.00;2.78;;;;;;;-3.27;100.00;100815.59;5094055;28;20024;-80
2023/11/28 07:42:09;;;;;;;7.43;2.90;;;;;;;-3.24;100.00;100817.22;5094165;28;20039;-80
2023/11/28 07:44:35;;;;;;;6.40;3.03;;;;;;;-3.22;100.00;100818.88;5094341;28;20119;-80
2023/11/28 07:47:00;;;;;;;3.58;2.50;;;;;;;-3.17;100.00;100818.72;5094319;28;20448;-79
2023/11/28 07:49:25;;;;;;;5.88;3.22;;;;;;;-3.16;100.00;100820.41;5094285;28;20043;-80
2023/11/28 07:51:51;;;;;;;5.15;2.70;;;;;;;-3.14;100.00;100822.97;5094596;28;20063;-79
2023/11/28 07:54:16;;;;;;;6.97;2.75;;;;;;;-3.10;100.00;100827.19;5093971;28;20036;-81
2023/11/28 07:56:41;;;;;;;8.77;3.38;;;;;;;-3.05;100.00;100825.25;5093930;28;20035;-80
2023/11/28 07:59:07;;;;;;;3.25;2.50;;;;;;;-3.03;100.00;100829.50;5093739;28;20070;-80
2023/11/28 08:01:32;;;;;;;10.95;3.58;;;;;;;-2.98;100.00;100828.50;5094021;28;20147;-79
2023/11/28 08:03:57;;;;;;;5.85;2.97;;;;;;;-2.94;100.00;100830.97;5094559;28;20069;-81
2023/11/28 08:06:25;;;;;;;5.15;2.72;;;;;;;-2.91;100.00;100843.88;5094204;28;20324;-81
2023/11/28 08:08:50;;;;;;;8.82;4.82;;;;;;;-2.88;100.00;100837.69;5093688;28;20070;-81
2023/11/28 08:11:16;;;;;;;7.45;3.60;;;;;;;-2.84;100.00;100839.28;5076156;28;20410;-80
2023/11/28 08:13:41;;;;;;;9.23;2.97;;;;;;;-2.77;100.00;100843.38;5093967;28;20111;-81
2023/11/28 08:16:07;;;;;;;4.75;3.05;;;;;;;-2.73;100.00;100850.19;5093663;28;20464;-80
2023/11/28 08:18:33;;;;;;;7.20;3.65;;;;;;;-2.67;100.00;100844.75;5093349;28;20020;-86
2023/11/28 08:21:01;;;;;;;4.88;2.97;;;;;;;-2.60;100.00;100853.19;5093593;28;20039;-80
2023/11/28 08:23:27;;;;;;;9.57;4.30;;;;;;;-2.54;100.00;100853.00;5093289;28;20074;-79
2023/11/28 08:25:52;;;;;;;7.10;3.75;;;;;;;-2.46;100.00;100862.28;5093009;28;20074;-80
2023/11/28 08:28:17;;;;;;;6.38;3.83;;;;;;;-2.42;100.00;100859.50;5058456;28;20032;-80
2023/11/28 08:30:43;;;;;;;7.25;3.67;;;;;;;-2.34;100.00;100862.69;5093256;28;20035;-80
2023/11/28 08:33:08;;;;;;;5.82;3.95;;;;;;;-2.27;100.00;100875.50;5093197;28;20031;-79
2023/11/28 08:35:34;;;;;;;8.43;4.15;;;;;;;-2.21;100.00;100870.94;5092824;28;20032;-80
2023/11/28 08:37:59;;;;;;;9.60;4.35;;;;;;;-2.13;100.00;100879.28;5093244;28;20032;-79
2023/11/28 08:40:24;;;;;;;16.60;4.50;;;;;;;-2.04;100.00;100893.75;5092651;28;20436;-79
2023/11/28 08:42:50;;;;;;;7.65;4.43;;;;;;;-1.95;100.00;100893.41;5074657;28;20040;-79
2023/11/28 08:45:15;;;;;;;8.20;4.72;;;;;;;-1.86;100.00;100897.44;5074954;28;20043;-79
2023/11/28 08:47:40;;;;;;;11.30;5.47;;;;;;;-1.79;100.00;100901.50;5093106;28;20032;-79
2023/11/28 08:50:06;;;;;;;9.50;5.38;;;;;;;-1.68;100.00;100908.06;5092919;28;20040;-79
2023/11/28 08:52:32;;;;;;;13.20;4.95;;;;;;;-1.60;100.00;100916.44;5092859;28;20028;-78
2023/11/28 08:54:59;;;;;;;9.43;4.75;;;;;;;-1.51;100.00;100916.09;5074164;28;20032;-79
2023/11/28 08:57:33;;;;;;;6.47;4.65;;;;;;;-1.40;100.00;100920.91;5092846;28;20195;-79
2023/11/28 08:59:59;;;;;;;15.43;4.85;;;;;;;-1.28;100.00;100922.19;5092868;28;20349;-79
2023/11/28 09:02:25;;;;;;;9.60;5.15;;;;;;;-1.15;100.00;100919.91;5074908;28;20032;-79
2023/11/28 09:04:50;;;;;;;11.90;5.03;;;;;;;-1.03;100.00;100924.66;5092584;28;20054;-79
2023/11/28 09:07:15;;;;;;;10.18;4.70;;;;;;;-0.92;100.00;100927.66;5092473;28;20401;-79
2023/11/28 09:09:41;;;;;;;14.13;4.95;;;;;;;-0.82;100.00;100927.28;5092793;28;20123;-79
2023/11/28 09:12:06;;;;;;;13.82;4.75;;;;;;;-0.75;100.00;100928.72;5074571;28;20116;-80
2023/11/28 09:14:31;;;;;;;4.15;3.72;;;;;;;-0.64;100.00;100925.66;5075131;28;20067;-80
2023/11/28 09:16:57;;;;;;;10.32;4.45;;;;;;;-0.55;100.00;100928.75;5092336;28;20031;-81
2023/11/28 09:19:22;;;;;;;7.88;4.20;;;;;;;-0.47;100.00;100928.41;5075291;28;20039;-81
2023/11/28 09:21:48;;;;;;;14.00;3.97;;;;;;;-0.36;100.00;100931.41;5093053;28;20117;-81
2023/11/28 09:24:13;;;;;;;10.88;5.00;;;;;;;-0.26;100.00;100929.22;5074722;28;20116;-82
2023/11/28 09:26:38;;;;;;;6.80;4.45;;;;;;;-0.15;100.00;100935.75;5092870;28;20032;-82
2023/11/28 09:29:04;;;;;;;9.23;4.25;;;;;;;-0.08;100.00;100938.03;5092631;28;20380;-81
2023/11/28 09:31:30;;;;;;;9.85;4.50;;;;;;;0.02;100.00;100930.63;5092346;28;20086;-82
2023/11/28 09:33:58;;;;;;;8.30;4.35;;;;;;;0.11;100.00;100930.22;5092241;28;20423;-82
2023/11/28 09:36:23;;;;;;;7.78;4.45;;;;;;;0.17;100.00;100937.78;5093673;28;20024;-82
2023/11/28 09:38:49;;;;;;;7.25;4.30;;;;;;;0.29;100.00;100943.38;5096489;28;20499;-84
2023/11/28 09:41:24;;;;;;;8.15;4.40;;;;;;;0.38;100.00;100942.13;5078563;28;20064;-83
2023/11/28 09:43:50;;;;;;;10.60;4.20;;;;;;;0.44;100.00;100941.81;5096885;28;20119;-81
2023/11/28 09:46:18;;;;;;;6.40;3.58;;;;;;;0.56;100.00;100938.63;5096751;28;20056;-81
2023/11/28 09:48:47;;;;;;;6.28;3.83;;;;;;;0.67;100.00;100943.34;5061859;28;20464;-82
2023/11/28 09:51:14;;;;;;;6.00;3.65;;;;;;;0.80;100.00;100941.00;5096561;28;20169;-82
2023/11/28 09:53:42;;;;;;;12.48;3.95;;;;;;;1.02;100.00;100943.44;5096363;28;20089;-82
2023/11/28 09:56:09;;;;;;;5.85;3.47;;;;;;;1.31;100.00;100943.75;5096184;28;20032;-82
2023/11/28 09:58:36;;;;;;;7.80;4.25;;;;;;;1.61;100.00;100943.13;5096234;28;20032;-83
2023/11/28 10:01:06;;;;;;;8.38;3.17;;;;;;;1.76;100.00;100945.81;5096981;28;20048;-83
2023/11/28 10:03:32;;;;;;;9.55;3.55;;;;;;;1.83;100.00;100937.63;5096598;28;20050;-83
2023/11/28 10:05:58;;;;;;;6.43;3.45;;;;;;;1.88;100.00;100944.34;5096111;28;20036;-83
2023/11/28 10:08:26;;;;;;;12.13;3.78;;;;;;;1.82;100.00;100957.78;5096408;28;20032;-82
2023/11/28 10:10:53;;;;;;;5.07;3.00;;;;;;;1.64;100.00;100951.66;5096098;28;20128;-82
2023/11/28 10:13:19;;;;;;;7.05;3.30;;;;;;;1.39;100.00;100947.69;5062235;28;20125;-82
2023/11/28 10:15:49;;;;;;;7.00;3.38;;;;;;;1.29;100.00;100956.09;5077714;28;20116;-82
2023/11/28 10:18:22;;;;;;;6.30;3.50;;;;;;;1.28;100.00;100954.41;5095587;28;20056;-83
2023/11/28 10:20:49;;;;;;;5.38;3.33;;;;;;;1.31;100.00;100957.69;5096201;28;20039;-81
2023/11/28 10:23:15;;;;;;;5.03;3.05;;;;;;;1.34;100.00;100949.69;5077894;28;20039;-82
2023/11/28 10:25:41;;;;;;;5.85;3.30;;;;;;;1.40;100.00;100949.41;5095763;28;20036;-83
2023/11/28 10:28:08;;;;;;;5.25;3.17;;;;;;;1.43;100.00;100951.00;5095954;28;20039;-83
2023/11/28 10:30:36;;;;;;;7.45;3.47;;;;;;;1.49;100.00;100953.31;5096103;28;20028;-83
2023/11/28 10:33:02;;;;;;;4.97;3.13;;;;;;;1.49;100.00;100955.94;5095703;28;20476;-83
2023/11/28 10:35:42;;;;;;;7.65;3.15;;;;;;;1.54;100.00;100955.72;5078143;28;20177;-84
2023/11/28 10:38:12;;;;;;;4.97;3.00;;;;;;;1.66;100.00;100951.63;5096139;28;20096;-81
2023/11/28 10:40:37;;;;;;;9.67;3.00;;;;;;;1.92;100.00;100947.63;5095833;28;20341;-82
2023/11/28 10:43:07;;;;;;;6.68;3.15;;;;;;;2.25;100.00;100939.72;5095516;28;20324;-84
2023/11/28 10:45:32;;;;;;;4.63;2.30;;;;;;;2.56;100.00;100938.06;5095495;28;20031;-87
2023/11/28 10:47:58;;;;;;;7.80;2.55;;;;;;;2.77;100.00;100925.50;5095716;28;20028;-84
2023/11/28 10:50:24;;;;;;;4.05;2.40;;;;;;;2.97;100.00;100927.00;5095320;28;20028;-86
2023/11/28 10:52:51;;;;;;;3.88;2.60;;;;;;;2.99;100.00;100917.22;5095369;28;20081;-88
2023/11/28 10:55:20;;;;;;;8.35;2.60;;;;;;;2.92;100.00;100922.94;5094906;28;20068;-86
2023/11/28 10:57:51;;;;;;;4.72;2.60;;;;;;;2.97;100.00;100926.13;5095167;28;20028;-85
2023/11/28 11:00:21;;;;;;;6.85;2.72;;;;;;;3.00;100.00;100934.72;5094989;28;20047;-86
2023/11/28 11:02:48;;;;;;;9.18;3.20;;;;;;;3.07;100.00;100940.44;5095062;28;20028;-85
2023/11/28 11:05:14;;;;;;;5.55;2.67;;;;;;;2.99;100.00;100943.53;5095833;28;20039;-86
2023/11/28 11:07:40;;;;;;;3.85;2.55;;;;;;;2.89;100.00;100944.13;5096452;28;20035;-85
2023/11/28 11:10:08;;;;;;;5.30;3.05;;;;;;;2.85;100.00;100938.19;5096254;28;20029;-84
2023/11/28 11:12:39;;;;;;;8.52;3.20;;;;;;;2.78;100.00;100936.88;5096105;28;20455;-81